Ansley, NE (68814)

2:03 PM CDT on July 28, 2014 (GMT -0500)
KNEANSLE2 Elev 2320 ft | 41.29 °N, 99.38 °W | Change Station

Current weather conditions updated 3 minutes ago

Scattered Clouds
Scattered Clouds
77.6 °F
Feels Like 79 °F
N
5.0
Wind Variable Wind from SSW
Gusts 7.0 mph

Today is forecast to be Cooler than yesterday.

Today
High -- | Low -- °F
--% Chance of Precip.
Yesterday
High -- | Low -- °F
Precip. -- in
6:28 AM 8:58 PM
Waxing Crescent, 3% visible
Pressure 30.32 in
Visibility 10.0 miles
Clouds Scattered Clouds 8500 ft
Heat Index 79 °F
Dew Point 61 °F
Humidity 56%
Rainfall 0.00 in
Snow Depth Not available.
UV 9 out of 12
Pollen 7.20 out of 12
Air Quality Not available.
Flu Activity Not available.
METAR KBBW 281753Z AUTO 00000KT 10SM SCT085 24/13 A3032

More Conditions Fewer Conditions

Pressure 30.32 in
Visibility 10.0 miles
Clouds Scattered Clouds 8500 ft
Heat Index 79 °F
Dew Point 61 °F
Humidity 56%
Rainfall 0.00 in
Snow Depth Not available.
UV 9 out of 12
Pollen 7.20 out of 12
Air Quality Not available.
Flu Activity Not available.
METAR KBBW 281753Z AUTO 00000KT 10SM SCT085 24/13 A3032

More Conditions Fewer Conditions

10-Day Weather Forecast

Almanac

Astronomy

Jul. 28, 2014 Rise Set
Actual Time 6:28 AM CDT 8:58 PM CDT
Civil Twilight 5:57 AM CDT 9:29 PM CDT
Nautical Twilight 5:17 AM CDT 10:08 PM CDT
Astronomical Twilight 4:33 AM CDT 10:52 PM CDT
Moon 8:13 AM CDT 9:38 PM CDT
Length of Visible Light 15h 32m
Length of Day
14h 29m
Tomorrow will be 1m 58s shorter.
Waxing Crescent, 3% of the Moon is Illuminated
Today
Waxing Crescent
Aug 3
First Quarter
Aug 10
Full
Aug 17
Last Quarter
Aug 25
New

Today's Extremes

State Highs State Lows

Community

WunderPhotos

Upload Photos

1,738,435 photos uploaded!

Nearby

Snow Depth

Station Depth Elevation
No new snow has been reported.

Earthquake Activity

City Distance Mag. Time & Date
No recent earthquake activity has been reported nearby.
Minimum magnitude displayed is 2.5.

Coastal Water Temperatures

Place Temperature
No Stations Reporting

Nearby Weather Stations

Station Location Temp. Heat Index Dew Point Humidity Wind Precip. Elev Updated Type
Ansley, NE 77.6 °F 79 °F 61 °F 56% SSW  at  5.0 mph 0.00 in / hr 2320 ft 1:59 PM CDT Normal
South of Town, Broken Bow, NE 77.2 °F 79 °F 55 °F 47% NW  at  3.0 mph 0.00 in / hr 2523 ft 2:02 PM CDT Normal
Central, Loup City, NE 76.1 °F 78 °F 59 °F 55% North  at  3.7 mph - / hr 2090 ft 2:01 PM CDT Normal
Sargent, Sargent, NE 75.5 °F 78 °F 56 °F 51% NNE  at  1.0 mph 0.00 in / hr 2314 ft 1:48 PM CDT Normal

Show More Stations Show Fewer Stations